Time;durP1;ratioP1;P1;durP2;ratioP2;P2;SDS_P1;SDS_P2;PMS_P1;PMS_P2;Temp;Humidity;BMP_temperature;BMP_pressure;BME280_temperature;BME280_humidity;BME280_pressure;Samples;Min_cycle;Max_cycle;Signal;HPM_P1;HPM_P2
2022/10/11 00:02:35;;;;;;;;;;;;;;;14.69;55.25;100983.47;5401694;32;35247;-77
2022/10/11 00:05:36;;;;;;;;;;;;;;;14.45;57.41;100983.63;5408617;32;35484;-77
2022/10/11 00:08:38;;;;;;;;;;;;;;;14.67;56.03;100983.53;5410239;32;34489;-75
2022/10/11 00:11:40;;;;;;;;;;;;;;;14.29;57.75;100977.31;5411655;32;44686;-74
2022/10/11 00:14:42;;;;;;;;;;;;;;;14.83;56.25;100984.53;5394213;32;35450;-77
2022/10/11 00:17:44;;;;;;;;;;;;;;;14.88;55.58;100974.59;5413624;32;35329;-78
2022/10/11 00:20:46;;;;;;;;;;;;;;;14.93;55.49;100969.06;5408103;32;34331;-78
2022/10/11 00:23:48;;;;;;;;;;;;;;;14.84;55.35;100967.72;5415309;32;35074;-77
2022/10/11 00:26:50;;;;;;;;;;;;;;;14.72;56.02;100967.44;5422517;32;35063;-76
2022/10/11 00:29:52;;;;;;;;;;;;;;;14.34;57.19;100973.53;5403235;32;37297;-74
2022/10/11 00:32:53;;;;;;;;;;;;;;;14.41;56.98;100960.03;5426622;32;34482;-77
2022/10/11 00:35:57;;;;;;;;;;;;;;;14.54;56.97;100964.72;5393927;32;35358;-77
2022/10/11 00:38:59;;;;;;;;;;;;;;;14.00;58.61;100968.91;5423734;32;35020;-78
2022/10/11 00:42:01;;;;;;;;;;;;;;;14.40;57.97;100964.47;5411087;32;35160;-75
2022/10/11 00:45:22;;;;;;;;;;;;;;;15.23;55.06;100957.94;5397856;32;35367;-77
2022/10/11 00:48:26;;;;;;;;;;;;;;;14.89;55.37;100967.50;5421118;32;35664;-76
2022/10/11 00:51:28;;;;;;;;;;;;;;;14.52;56.71;100965.72;5395254;32;35574;-77
2022/10/11 00:54:30;;;;;;;;;;;;;;;13.80;59.10;100963.63;5425833;32;35393;-75
2022/10/11 00:57:33;;;;;;;;;;;;;;;14.14;58.31;100954.22;5395101;32;34994;-74
2022/10/11 01:00:35;;;;;;;;;;;;;;;15.10;55.16;100955.03;5405460;32;34677;-77
2022/10/11 01:03:36;;;;;;;;;;;;;;;14.83;55.64;100960.72;5414904;32;35699;-76
2022/10/11 01:06:38;;;;;;;;;;;;;;;14.95;54.94;100951.34;5382430;32;35070;-75
2022/10/11 01:09:40;;;;;;;;;;;;;;;15.01;54.68;100947.53;5409210;32;44439;-77
2022/10/11 01:12:49;;;;;;;;;;;;;;;15.24;54.26;100954.34;5409017;32;34750;-75
2022/10/11 01:15:57;;;;;;;;;;;;;;;15.04;54.54;100944.72;5409539;32;34984;-75
2022/10/11 01:19:02;;;;;;;;;;;;;;;15.68;52.86;100944.19;5407877;32;34899;-76
2022/10/11 01:22:19;;;;;;;;;;;;;;;15.78;52.42;100945.44;5414691;32;35019;-76
2022/10/11 01:25:30;;;;;;;;;;;;;;;14.30;57.43;100949.97;5422560;32;34985;-77
2022/10/11 01:28:40;;;;;;;;;;;;;;;14.40;58.36;100948.59;5403688;32;34731;-77
2022/10/11 01:31:50;;;;;;;;;;;;;;;14.76;56.91;100945.22;5409164;32;45542;-77
2022/10/11 01:35:02;;;;;;;;;;;;;;;15.33;54.53;100949.47;5393746;32;34306;-77
2022/10/11 01:38:04;;;;;;;;;;;;;;;14.61;56.57;100942.34;5396648;32;34724;-77
2022/10/11 01:41:07;;;;;;;;;;;;;;;14.22;58.17;100949.44;5423855;32;34993;-77
2022/10/11 01:44:09;;;;;;;;;;;;;;;14.56;57.85;100940.88;5400903;32;35260;-75
2022/10/11 01:47:11;;;;;;;;;;;;;;;14.50;58.08;100941.16;5396556;32;44275;-77
2022/10/11 01:50:32;;;;;;;;;;;;;;;13.58;61.39;100939.06;5408900;32;35044;-77
2022/10/11 01:53:39;;;;;;;;;;;;;;;13.57;62.11;100940.84;5422479;32;34965;-75
2022/10/11 01:57:00;;;;;;;;;;;;;;;13.69;61.69;100936.81;5400837;32;45503;-75
2022/10/11 02:00:14;;;;;;;;;;;;;;;14.55;57.75;100939.13;5408675;32;35580;-77
2022/10/11 02:03:16;;;;;;;;;;;;;;;13.61;61.43;100931.00;5424376;32;44624;-78
2022/10/11 02:06:35;;;;;;;;;;;;;;;13.23;63.69;100942.25;5406554;32;35673;-77
2022/10/11 02:09:40;;;;;;;;;;;;;;;13.83;61.67;100935.28;5400752;32;34471;-77
2022/10/11 02:12:43;;;;;;;;;;;;;;;14.92;57.60;100932.09;5419575;32;44818;-77
2022/10/11 02:15:45;;;;;;;;;;;;;;;14.85;57.40;100935.03;5392918;32;34437;-76
2022/10/11 02:18:49;;;;;;;;;;;;;;;14.20;60.21;100930.16;5410440;32;34915;-76
2022/10/11 02:21:52;;;;;;;;;;;;;;;14.51;59.18;100927.84;5394607;32;35760;-75
2022/10/11 02:24:55;;;;;;;;;;;;;;;14.61;58.52;100931.75;5424083;32;35496;-76
2022/10/11 02:27:58;;;;;;;;;;;;;;;13.97;61.04;100926.75;5393683;32;34853;-77
2022/10/11 02:31:00;;;;;;;;;;;;;;;13.76;62.63;100933.84;5392857;32;36139;-75
2022/10/11 02:34:10;;;;;;;;;;;;;;;14.57;59.93;100930.19;5404940;32;35144;-75
2022/10/11 02:37:15;;;;;;;;;;;;;;;14.68;58.79;100934.97;5393974;32;44818;-77
2022/10/11 02:40:20;;;;;;;;;;;;;;;14.48;59.85;100930.62;5424688;32;34740;-75
2022/10/11 02:43:24;;;;;;;;;;;;;;;14.75;58.76;100936.41;5393363;32;35040;-75
2022/10/11 02:46:25;;;;;;;;;;;;;;;14.01;61.54;100936.25;5371841;32;35396;-77
2022/10/11 02:49:28;;;;;;;;;;;;;;;13.80;63.38;100939.84;5395319;32;35511;-77
2022/10/11 02:52:30;;;;;;;;;;;;;;;14.39;60.00;100932.81;5395596;32;34922;-77
2022/10/11 02:55:32;;;;;;;;;;;;;;;13.81;63.00;100941.56;5421387;32;34435;-75
2022/10/11 02:58:34;;;;;;;;;;;;;;;13.13;65.70;100942.66;5406497;32;35636;-74
2022/10/11 03:01:36;;;;;;;;;;;;;;;13.87;63.00;100945.72;5424084;32;34881;-76
2022/10/11 03:04:37;;;;;;;;;;;;;;;14.18;61.17;100942.59;5406770;32;36926;-75
2022/10/11 03:07:39;;;;;;;;;;;;;;;12.81;65.88;100952.72;5423224;32;35504;-76
2022/10/11 03:10:41;;;;;;;;;;;;;;;13.67;63.48;100946.59;5406357;32;46330;-76
2022/10/11 03:13:43;;;;;;;;;;;;;;;13.98;62.55;100949.63;5408009;32;34147;-78
2022/10/11 03:16:45;;;;;;;;;;;;;;;14.17;61.76;100940.84;5423610;32;35067;-77
2022/10/11 03:19:47;;;;;;;;;;;;;;;14.67;59.65;100935.91;5406481;32;34285;-77
2022/10/11 03:22:49;;;;;;;;;;;;;;;14.27;60.86;100934.22;5426906;32;36643;-75
2022/10/11 03:25:50;;;;;;;;;;;;;;;14.13;61.30;100942.78;5394293;32;35340;-75
2022/10/11 03:28:52;;;;;;;;;;;;;;;13.49;64.26;100946.44;5420000;32;35275;-76
2022/10/11 03:31:54;;;;;;;;;;;;;;;14.20;61.79;100941.59;5412190;32;35735;-75
2022/10/11 03:34:56;;;;;;;;;;;;;;;14.27;61.05;100947.44;5409002;32;35467;-76
2022/10/11 03:37:58;;;;;;;;;;;;;;;13.83;63.31;100955.56;5412573;32;34720;-77
2022/10/11 03:41:00;;;;;;;;;;;;;;;14.38;61.61;100949.63;5408369;32;35513;-76
2022/10/11 03:44:02;;;;;;;;;;;;;;;14.56;61.07;100952.28;5422686;32;34738;-78
2022/10/11 03:47:04;;;;;;;;;;;;;;;13.49;64.39;100962.28;5380035;32;35228;-75
2022/10/11 03:50:07;;;;;;;;;;;;;;;13.39;65.44;100973.28;5409040;32;36233;-77
2022/10/11 03:53:08;;;;;;;;;;;;;;;13.34;65.51;100962.09;5399252;32;35529;-77
2022/10/11 03:56:10;;;;;;;;;;;;;;;13.91;63.08;100969.31;5409427;32;45137;-77
2022/10/11 03:59:13;;;;;;;;;;;;;;;13.58;64.15;100954.91;5425364;32;35136;-75
2022/10/11 04:02:14;;;;;;;;;;;;;;;14.49;60.93;100956.16;5395502;32;34222;-74
2022/10/11 04:05:17;;;;;;;;;;;;;;;14.45;60.85;100959.84;5411459;32;35794;-76
2022/10/11 04:08:18;;;;;;;;;;;;;;;13.45;64.78;100958.06;5409234;32;35728;-76
2022/10/11 04:11:20;;;;;;;;;;;;;;;13.87;63.67;100970.38;5422472;32;34698;-74
2022/10/11 04:14:22;;;;;;;;;;;;;;;13.69;63.98;100974.66;5413832;32;35710;-77
2022/10/11 04:17:24;;;;;;;;;;;;;;;14.15;62.14;100977.06;5395889;32;35066;-75
2022/10/11 04:20:26;;;;;;;;;;;;;;;13.99;62.42;100968.97;5411137;32;36154;-77
2022/10/11 04:23:29;;;;;;;;;;;;;;;14.24;61.28;100969.59;5408051;32;34657;-75
2022/10/11 04:26:31;;;;;;;;;;;;;;;14.29;60.85;100972.03;5426601;32;35462;-75
2022/10/11 04:29:32;;;;;;;;;;;;;;;13.71;63.89;100977.22;5406109;32;34711;-75
2022/10/11 04:32:34;;;;;;;;;;;;;;;13.81;62.99;100978.56;5421024;32;34671;-76
2022/10/11 04:35:36;;;;;;;;;;;;;;;14.02;62.35;100977.62;5399379;32;37229;-75
2022/10/11 04:38:38;;;;;;;;;;;;;;;13.78;63.28;100970.75;5410614;32;36106;-75
2022/10/11 04:41:40;;;;;;;;;;;;;;;14.39;60.93;100970.69;5412280;32;44495;-76
2022/10/11 04:44:42;;;;;;;;;;;;;;;14.97;59.24;100965.34;5381955;32;34354;-78
2022/10/11 04:47:44;;;;;;;;;;;;;;;14.11;60.88;100970.22;5416698;32;35319;-76
2022/10/11 04:50:45;;;;;;;;;;;;;;;13.94;62.45;100973.59;5391177;32;34713;-76
2022/10/11 04:53:48;;;;;;;;;;;;;;;13.93;62.87;100969.25;5419988;32;35013;-75
2022/10/11 04:56:49;;;;;;;;;;;;;;;14.28;60.81;100967.66;5402199;32;34985;-76
2022/10/11 04:59:51;;;;;;;;;;;;;;;13.96;62.57;100963.81;5395569;32;34767;-77
2022/10/11 05:02:54;;;;;;;;;;;;;;;13.85;63.15;100959.03;5411755;32;34935;-78
2022/10/11 05:05:55;;;;;;;;;;;;;;;13.57;64.28;100974.31;5407654;32;35531;-75
2022/10/11 05:08:57;;;;;;;;;;;;;;;14.87;59.64;100966.72;5411002;32;35577;-75
2022/10/11 05:11:59;;;;;;;;;;;;;;;13.64;63.69;100963.41;5407846;32;35466;-75
2022/10/11 05:15:01;;;;;;;;;;;;;;;14.33;61.79;100971.81;5418775;32;34639;-76
2022/10/11 05:18:03;;;;;;;;;;;;;;;13.96;62.06;100977.03;5402882;32;34791;-77
2022/10/11 05:21:06;;;;;;;;;;;;;;;13.81;63.13;100975.91;5395120;32;34494;-75
2022/10/11 05:24:08;;;;;;;;;;;;;;;13.89;63.01;100972.94;5425054;32;35721;-76
2022/10/11 05:27:10;;;;;;;;;;;;;;;14.00;61.64;100982.13;5408249;32;44505;-75
2022/10/11 05:30:12;;;;;;;;;;;;;;;13.75;62.30;100987.59;5417663;32;35988;-79
2022/10/11 05:33:14;;;;;;;;;;;;;;;14.43;61.05;100977.56;5388960;32;35356;-75
2022/10/11 05:36:16;;;;;;;;;;;;;;;14.96;59.34;100978.66;5415712;32;35168;-76
2022/10/11 05:39:18;;;;;;;;;;;;;;;14.93;59.28;100981.44;5415316;32;35225;-83
2022/10/11 05:42:20;;;;;;;;;;;;;;;15.98;55.57;100984.16;5404132;32;34895;-80
2022/10/11 05:45:21;;;;;;;;;;;;;;;15.79;55.95;100994.84;5398981;32;34536;-81
2022/10/11 05:48:25;;;;;;;;;;;;;;;15.95;55.51;101002.87;5690638;26;34709;-96
2022/10/11 05:52:09;;;;;;;;;;;;;;;15.81;55.33;100997.41;5463398;32;34366;-96
2022/10/11 05:55:12;;;;;;;;;;;;;;;15.37;56.91;101014.56;5459581;32;35047;-96
2022/10/11 05:58:44;;;;;;;;;;;;;;;15.85;56.03;100999.00;5427963;32;35215;-96
2022/10/11 06:02:02;;;;;;;;;;;;;;;17.19;52.17;101002.31;5355296;27;36136;-76
2022/10/11 06:05:04;;;;;;;;;;;;;;;16.86;52.73;101010.37;5319467;32;37071;-70
2022/10/11 06:08:07;;;;;;;;;;;;;;;17.32;50.82;101011.34;5319454;32;34471;-71
2022/10/11 06:11:13;;;;;;;;;;;;;;;17.23;51.44;101013.63;5334999;32;34467;-71
2022/10/11 06:14:15;;;;;;;;;;;;;;;17.81;49.82;101012.94;5335564;32;33220;-68
2022/10/11 06:17:17;;;;;;;;;;;;;;;18.52;47.03;101006.84;5352784;32;34382;-73
2022/10/11 06:20:19;;;;;;;;;;;;;;;17.71;49.13;101017.97;5338285;32;35766;-74
2022/10/11 06:23:21;;;;;;;;;;;;;;;17.53;49.91;101030.50;5326603;32;34300;-85
2022/10/11 06:26:23;;;;;;;;;;;;;;;17.84;48.06;101026.94;5321392;32;36111;-77
2022/10/11 06:29:25;;;;;;;;;;;;;;;18.50;46.70;101022.06;5324635;32;36031;-72
2022/10/11 06:32:27;;;;;;;;;;;;;;;18.59;45.56;101024.16;5350441;32;47523;-73
2022/10/11 06:35:29;;;;;;;;;;;;;;;18.60;45.28;101020.53;5337996;32;34254;-87
2022/10/11 06:38:31;;;;;;;;;;;;;;;18.40;45.78;101014.66;5347990;32;35535;-84
2022/10/11 06:41:32;;;;;;;;;;;;;;;18.87;44.15;101013.53;5324396;32;34508;-72
2022/10/11 06:44:34;;;;;;;;;;;;;;;18.92;43.23;101015.88;5332846;32;35309;-71
2022/10/11 06:47:36;;;;;;;;;;;;;;;19.63;42.29;101023.66;5346369;32;39019;-69
2022/10/11 06:50:38;;;;;;;;;;;;;;;19.35;42.56;101021.09;5329070;32;35760;-76
2022/10/11 06:54:00;;;;;;;;;;;;;;;19.49;41.93;101016.56;5352928;32;44254;-78
2022/10/11 06:57:02;;;;;;;;;;;;;;;20.22;40.22;101013.41;5341433;32;34243;-78
2022/10/11 07:00:04;;;;;;;;;;;;;;;20.64;39.93;101015.88;5352708;32;34412;-79
2022/10/11 07:03:13;;;;;;;;;;;;;;;19.60;42.03;101026.53;5333948;32;34777;-76
2022/10/11 07:06:16;;;;;;;;;;;;;;;21.35;38.47;101028.50;5339059;32;34140;-76
2022/10/11 07:09:18;;;;;;;;;;;;;;;19.61;40.67;101028.25;5351211;32;34177;-80
2022/10/11 07:12:20;;;;;;;;;;;;;;;20.09;40.98;101036.53;5340276;32;35904;-73
2022/10/11 07:15:22;;;;;;;;;;;;;;;20.07;40.56;101043.81;5348700;32;34955;-74
2022/10/11 07:18:27;;;;;;;;;;;;;;;20.27;40.70;101034.44;5338774;32;46044;-80
2022/10/11 07:21:30;;;;;;;;;;;;;;;20.21;40.68;101037.53;5339892;32;35121;-74
2022/10/11 07:24:32;;;;;;;;;;;;;;;21.04;38.18;101030.72;5328552;32;35671;-73
2022/10/11 07:27:34;;;;;;;;;;;;;;;20.96;38.13;101029.59;5337100;32;35670;-83
2022/10/11 07:30:40;;;;;;;;;;;;;;;18.83;42.29;101035.12;5355972;32;36322;-84
2022/10/11 07:33:42;;;;;;;;;;;;;;;19.19;42.43;101039.88;5329264;32;32892;-76
2022/10/11 07:36:44;;;;;;;;;;;;;;;18.70;43.86;101037.69;5339628;32;34147;-74
2022/10/11 07:39:47;;;;;;;;;;;;;;;19.52;41.80;101026.19;5342787;32;34140;-75
2022/10/11 07:42:50;;;;;;;;;;;;;;;19.05;43.32;101034.59;5351283;32;34470;-88
2022/10/11 07:45:55;;;;;;;;;;;;;;;20.44;40.59;101036.78;5347384;32;37710;-72
2022/10/11 07:48:57;;;;;;;;;;;;;;;18.61;44.38;101047.09;5329823;32;44485;-81
2022/10/11 07:51:59;;;;;;;;;;;;;;;18.64;44.55;101051.34;5352447;32;35944;-77
2022/10/11 07:55:01;;;;;;;;;;;;;;;18.33;45.60;101045.25;5339981;32;35835;-82
2022/10/11 07:58:06;;;;;;;;;;;;;;;18.91;44.44;101052.31;5356939;32;35260;-76
2022/10/11 08:01:08;;;;;;;;;;;;;;;18.60;45.07;101047.16;5340467;32;34374;-74
2022/10/11 08:04:10;;;;;;;;;;;;;;;18.98;44.04;101052.78;5326696;32;36940;-72
2022/10/11 08:07:12;;;;;;;;;;;;;;;18.11;46.41;101055.50;5341861;32;31966;-77
2022/10/11 08:10:14;;;;;;;;;;;;;;;17.18;48.69;101061.69;5337697;32;35478;-80
2022/10/11 08:13:16;;;;;;;;;;;;;;;18.28;46.63;101046.47;5336280;32;35696;-89
2022/10/11 08:16:19;;;;;;;;;;;;;;;19.15;44.20;101049.03;5343605;32;34353;-93
2022/10/11 08:19:21;;;;;;;;;;;;;;;17.32;48.56;101053.84;5345154;32;35223;-91
2022/10/11 08:22:25;;;;;;;;;;;;;;;17.22;48.78;101060.59;5338823;32;35649;-76
2022/10/11 08:25:28;;;;;;;;;;;;;;;17.85;46.87;101065.00;5333784;32;45840;-86
2022/10/11 08:28:30;;;;;;;;;;;;;;;18.73;44.87;101050.78;5330703;32;36886;-78
2022/10/11 08:31:33;;;;;;;;;;;;;;;17.65;47.38;101052.84;5335906;32;33128;-75
2022/10/11 08:34:35;;;;;;;;;;;;;;;18.87;44.14;101055.25;5359072;32;34149;-76
2022/10/11 08:37:36;;;;;;;;;;;;;;;17.78;47.44;101063.66;5336255;32;34413;-77
2022/10/11 08:40:50;;;;;;;;;;;;;;;18.82;45.38;101052.06;5336497;32;34041;-73
2022/10/11 08:44:19;;;;;;;;;;;;;;;18.40;46.87;101059.03;5340854;32;34189;-77
2022/10/11 08:47:41;;;;;;;;;;;;;;;17.86;48.62;101062.25;5330883;32;34115;-79
2022/10/11 08:50:45;;;;;;;;;;;;;;;18.38;48.02;101056.47;5352306;32;33460;-84
2022/10/11 08:53:53;;;;;;;;;;;;;;;17.76;49.33;101053.09;5339109;32;34579;-85
2022/10/11 08:56:55;;;;;;;;;;;;;;;18.32;48.54;101048.00;5347369;32;34313;-81
2022/10/11 09:00:03;;;;;;;;;;;;;;;19.21;46.33;101048.66;5329323;32;43065;-76
2022/10/11 09:03:23;;;;;;;;;;;;;;;18.84;47.20;101050.97;5338107;32;35260;-79
2022/10/11 09:06:34;;;;;;;;;;;;;;;19.13;46.26;101048.28;5351364;32;44727;-75
2022/10/11 09:09:46;;;;;;;;;;;;;;;19.79;44.89;101044.84;5340958;32;35806;-87
2022/10/11 09:12:57;;;;;;;;;;;;;;;19.61;46.17;101040.72;5326938;32;941918;-76
2022/10/11 09:16:08;;;;;;;;;;;;;;;20.14;45.45;101041.56;5308829;32;44595;-78
2022/10/11 09:19:19;;;;;;;;;;;;;;;20.81;43.91;101035.06;5330812;32;35550;-75
2022/10/11 09:22:21;;;;;;;;;;;;;;;20.09;45.92;101049.03;5357696;32;34415;-75
2022/10/11 09:26:02;;;;;;;;;;;;;;;20.61;45.31;101048.13;5323389;32;44416;-81
2022/10/11 09:29:10;;;;;;;;;;;;;;;19.97;46.49;101054.28;5295662;32;44960;-82
2022/10/11 09:32:17;;;;;;;;;;;;;;;20.89;44.48;101053.22;5337571;32;34055;-83
2022/10/11 09:35:23;;;;;;;;;;;;;;;21.22;43.78;101057.94;5344337;32;34571;-92
2022/10/11 09:38:30;;;;;;;;;;;;;;;20.36;46.26;101057.84;5351324;32;44789;-82
2022/10/11 09:41:37;;;;;;;;;;;;;;;19.99;47.63;101057.69;5338898;32;35831;-80
2022/10/11 09:44:40;;;;;;;;;;;;;;;20.80;46.12;101053.87;5354189;32;32584;-80
2022/10/11 09:47:42;;;;;;;;;;;;;;;19.81;47.99;101058.91;5345129;32;34415;-74
2022/10/11 09:50:44;;;;;;;;;;;;;;;21.46;44.83;101044.63;5345691;32;33886;-78
2022/10/11 09:53:50;;;;;;;;;;;;;;;22.96;41.21;101041.91;5352155;32;34134;-77
2022/10/11 09:56:52;;;;;;;;;;;;;;;24.79;36.98;101036.28;5343036;32;34562;-77
2022/10/11 09:59:58;;;;;;;;;;;;;;;27.20;33.10;101038.91;5333837;32;34459;-81
2022/10/11 10:03:01;;;;;;;;;;;;;;;26.20;33.70;101050.34;5335663;32;44435;-81
2022/10/11 10:06:08;;;;;;;;;;;;;;;24.50;36.77;101046.06;5344782;32;34163;-81
2022/10/11 10:09:27;;;;;;;;;;;;;;;25.95;34.36;101045.56;5342690;32;32876;-86
2022/10/11 10:12:29;;;;;;;;;;;;;;;25.96;34.57;101041.91;5306267;32;45028;-84
2022/10/11 10:15:34;;;;;;;;;;;;;;;26.75;33.42;101044.25;5354395;32;34262;-84
2022/10/11 10:18:47;;;;;;;;;;;;;;;28.81;29.59;101023.31;5343357;32;34208;-90
2022/10/11 10:21:50;;;;;;;;;;;;;;;26.56;33.29;101029.84;5349528;32;34198;-89
2022/10/11 10:24:52;;;;;;;;;;;;;;;26.91;33.30;101017.47;5315885;32;34222;-79
2022/10/11 10:27:59;;;;;;;;;;;;;;;28.00;30.96;101019.09;5343779;32;37384;-85
2022/10/11 10:31:01;;;;;;;;;;;;;;;24.82;36.63;101025.25;5357686;32;44494;-78
2022/10/11 10:34:14;;;;;;;;;;;;;;;24.72;37.01;101020.84;5327963;32;34237;-77
2022/10/11 10:37:15;;;;;;;;;;;;;;;25.82;35.09;101016.22;5351135;32;35818;-70
2022/10/11 10:40:19;;;;;;;;;;;;;;;23.82;38.80;101032.16;5339417;32;33898;-75
2022/10/11 10:43:22;;;;;;;;;;;;;;;23.28;40.10;101029.56;5343719;32;34058;-74
2022/10/11 10:46:34;;;;;;;;;;;;;;;23.83;38.95;101016.91;5351670;32;34436;-81
2022/10/11 10:49:43;;;;;;;;;;;;;;;24.73;37.23;101022.53;5344692;32;34194;-79
2022/10/11 10:53:19;;;;;;;;;;;;;;;24.18;38.25;101008.53;5350607;32;44848;-77
2022/10/11 10:56:30;;;;;;;;;;;;;;;23.39;39.95;101016.13;5337491;32;35333;-78
2022/10/11 10:59:41;;;;;;;;;;;;;;;23.98;38.73;101008.41;5339079;32;44788;-80
2022/10/11 11:03:04;;;;;;;;;;;;;;;24.10;38.94;101016.41;5353549;32;36300;-78
2022/10/11 11:06:11;;;;;;;;;;;;;;;23.54;39.67;101004.09;5338378;32;39188;-72
2022/10/11 11:09:13;;;;;;;;;;;;;;;21.26;45.12;101021.16;5353729;32;34684;-70
2022/10/11 11:12:33;;;;;;;;;;;;;;;21.46;45.12;101009.00;5336862;32;34570;-81
2022/10/11 11:15:39;;;;;;;;;;;;;;;22.29;43.30;101015.12;5331111;32;44808;-77
2022/10/11 11:18:45;;;;;;;;;;;;;;;23.24;41.32;101002.97;5348458;32;34527;-79
2022/10/11 11:21:49;;;;;;;;;;;;;;;24.16;39.04;100995.25;5334656;32;34423;-74
2022/10/11 11:24:55;;;;;;;;;;;;;;;23.86;39.85;101008.62;5329889;32;34095;-78
2022/10/11 11:28:10;;;;;;;;;;;;;;;22.17;43.09;101008.88;5340036;32;44530;-84
2022/10/11 11:31:12;;;;;;;;;;;;;;;23.15;41.49;101003.75;5333532;32;35252;-82
2022/10/11 11:34:14;;;;;;;;;;;;;;;22.50;42.93;101001.84;5352298;32;35381;-86
2022/10/11 11:37:35;;;;;;;;;;;;;;;24.22;38.96;100992.03;5343289;32;34396;-78
2022/10/11 11:40:41;;;;;;;;;;;;;;;22.89;41.99;100995.16;5348419;32;35434;-87
2022/10/11 11:43:50;;;;;;;;;;;;;;;23.00;41.62;100988.94;5340316;32;34985;-87
2022/10/11 11:46:53;;;;;;;;;;;;;;;21.72;44.12;101004.38;5347488;32;34511;-79
2022/10/11 11:49:58;;;;;;;;;;;;;;;23.72;40.08;100994.53;5351453;32;34212;-84
2022/10/11 11:53:03;;;;;;;;;;;;;;;23.23;41.51;100993.22;5340039;32;44728;-78
2022/10/11 11:56:08;;;;;;;;;;;;;;;23.77;40.33;100989.63;5340645;32;35707;-75
2022/10/11 11:59:20;;;;;;;;;;;;;;;24.01;39.61;100980.44;5343532;32;34833;-91
2022/10/11 12:02:37;;;;;;;;;;;;;;;23.00;41.77;100974.69;5357185;32;34393;-79
2022/10/11 12:05:42;;;;;;;;;;;;;;;23.27;41.43;100979.59;5348122;32;35335;-76
2022/10/11 12:08:55;;;;;;;;;;;;;;;22.33;43.59;100972.87;5332825;32;34460;-71
2022/10/11 12:11:59;;;;;;;;;;;;;;;22.87;42.82;100982.87;5344375;32;46387;-71
2022/10/11 12:15:03;;;;;;;;;;;;;;;22.88;42.81;100980.06;5339485;32;35428;-73
2022/10/11 12:18:12;;;;;;;;;;;;;;;22.58;43.34;100982.47;5353664;32;35533;-71
2022/10/11 12:21:16;;;;;;;;;;;;;;;22.63;43.25;100983.81;5343395;32;35729;-71
2022/10/11 12:24:18;;;;;;;;;;;;;;;22.47;43.84;100974.44;5316789;32;34162;-70
2022/10/11 12:27:58;;;;;;;;;;;;;;;23.14;42.59;100979.75;5348851;32;34227;-73
2022/10/11 12:31:04;;;;;;;;;;;;;;;22.90;43.15;100971.88;5324431;32;34334;-73
2022/10/11 12:34:06;;;;;;;;;;;;;;;22.38;43.92;100966.19;5328010;32;35260;-72
2022/10/11 12:37:18;;;;;;;;;;;;;;;22.21;44.60;100968.47;5345209;32;33814;-75
2022/10/11 12:40:34;;;;;;;;;;;;;;;21.92;45.42;100973.41;5353838;32;34274;-73
2022/10/11 12:43:49;;;;;;;;;;;;;;;23.01;42.79;100963.81;5353300;32;36753;-74
2022/10/11 12:46:53;;;;;;;;;;;;;;;21.66;45.95;100983.44;5342279;32;35331;-74
2022/10/11 12:50:01;;;;;;;;;;;;;;;21.24;47.24;100973.13;5353817;32;44676;-73
2022/10/11 12:53:23;;;;;;;;;;;;;;;21.47;46.34;100978.63;5332009;32;34244;-72
2022/10/11 12:56:44;;;;;;;;;;;;;;;22.08;45.01;100968.56;5335986;32;33462;-74
2022/10/11 12:59:46;;;;;;;;;;;;;;;21.95;45.51;100968.66;5350991;32;34591;-73
2022/10/11 13:02:48;;;;;;;;;;;;;;;24.50;39.53;100957.41;5342736;32;33963;-72
2022/10/11 13:05:53;;;;;;;;;;;;;;;25.41;37.20;100955.47;5356803;32;34245;-71
2022/10/11 13:09:01;;;;;;;;;;;;;;;24.99;38.31;100961.03;5345559;32;45996;-72
2022/10/11 13:12:05;;;;;;;;;;;;;;;23.74;40.71;100957.69;5317014;32;34213;-80
2022/10/11 13:15:14;;;;;;;;;;;;;;;24.67;39.18;100956.75;5328195;32;36681;-77
2022/10/11 13:18:17;;;;;;;;;;;;;;;25.69;36.65;100953.72;5335494;32;35365;-85
2022/10/11 13:21:22;;;;;;;;;;;;;;;28.29;32.33;100951.22;5353350;32;33992;-80
2022/10/11 13:24:26;;;;;;;;;;;;;;;27.82;32.77;100953.44;5331744;32;35462;-81
2022/10/11 13:27:28;;;;;;;;;;;;;;;30.05;29.43;100940.19;5331024;32;44536;-78
2022/10/11 13:30:31;;;;;;;;;;;;;;;31.11;27.50;100942.47;5341548;32;35650;-82
2022/10/11 13:33:34;;;;;;;;;;;;;;;30.43;28.17;100940.44;5352128;32;39073;-84
2022/10/11 13:36:36;;;;;;;;;;;;;;;31.23;26.89;100934.72;5348463;32;35651;-79
2022/10/11 13:39:39;;;;;;;;;;;;;;;32.07;25.62;100928.25;5336969;32;35628;-73
2022/10/11 13:42:42;;;;;;;;;;;;;;;31.39;26.45;100933.81;5336252;32;34302;-77
2022/10/11 13:45:44;;;;;;;;;;;;;;;30.65;27.42;100936.09;5336068;32;35574;-80
2022/10/11 13:48:55;;;;;;;;;;;;;;;32.32;25.10;100936.94;5344311;32;34256;-81
2022/10/11 13:51:58;;;;;;;;;;;;;;;30.29;27.84;100939.31;5353239;32;43755;-75
2022/10/11 13:55:00;;;;;;;;;;;;;;;27.98;31.39;100945.47;5338763;32;33674;-82
2022/10/11 13:58:07;;;;;;;;;;;;;;;26.22;34.12;100951.38;5354204;32;34387;-88
2022/10/11 14:01:23;;;;;;;;;;;;;;;25.96;34.72;100953.03;5321507;32;35165;-76
2022/10/11 14:04:25;;;;;;;;;;;;;;;24.90;37.17;100959.19;5316313;32;44722;-74
2022/10/11 14:07:32;;;;;;;;;;;;;;;23.77;39.90;100957.44;5336109;32;44642;-81
2022/10/11 14:10:34;;;;;;;;;;;;;;;24.59;37.65;100957.41;5330278;32;35567;-83
2022/10/11 14:13:40;;;;;;;;;;;;;;;23.37;40.28;100959.03;5345414;32;34329;-86
2022/10/11 14:16:46;;;;;;;;;;;;;;;22.72;42.26;100966.16;5343526;32;34292;-84
2022/10/11 14:20:01;;;;;;;;;;;;;;;22.12;43.96;100964.72;5329576;32;34390;-74
2022/10/11 14:23:12;;;;;;;;;;;;;;;21.60;45.65;100972.22;5311036;32;34133;-78
2022/10/11 14:26:14;;;;;;;;;;;;;;;21.99;44.65;100969.28;5316760;32;34513;-76
2022/10/11 14:29:21;;;;;;;;;;;;;;;22.36;43.76;100968.13;5345939;32;34017;-76
2022/10/11 14:32:28;;;;;;;;;;;;;;;23.01;41.97;100963.81;5332280;32;33335;-77
2022/10/11 14:35:30;;;;;;;;;;;;;;;22.23;44.22;100974.59;5319548;32;45882;-74
2022/10/11 14:38:32;;;;;;;;;;;;;;;22.86;42.41;100965.03;5335608;32;34940;-77
2022/10/11 14:41:34;;;;;;;;;;;;;;;22.21;44.17;100965.78;5345950;32;34600;-74
2022/10/11 14:44:36;;;;;;;;;;;;;;;22.29;43.57;100963.38;5341270;32;34832;-77
2022/10/11 14:47:38;;;;;;;;;;;;;;;23.07;41.41;100963.31;5338621;32;35456;-75
2022/10/11 14:50:48;;;;;;;;;;;;;;;22.34;43.26;100964.72;5351331;32;35002;-75
2022/10/11 14:53:50;;;;;;;;;;;;;;;22.43;42.95;100963.13;5335937;32;34477;-77
2022/10/11 14:56:53;;;;;;;;;;;;;;;21.55;45.30;100971.72;5352409;32;34537;-76
2022/10/11 14:59:55;;;;;;;;;;;;;;;21.41;45.62;100974.59;5333247;32;43280;-77
2022/10/11 15:02:57;;;;;;;;;;;;;;;21.40;45.97;100970.22;5327817;32;34241;-74
2022/10/11 15:06:00;;;;;;;;;;;;;;;21.49;45.34;100974.00;5334161;32;34833;-74
2022/10/11 15:09:03;;;;;;;;;;;;;;;21.80;44.65;100954.66;5339915;32;34873;-76
2022/10/11 15:12:05;;;;;;;;;;;;;;;22.01;44.38;100959.31;5354228;32;34913;-74
2022/10/11 15:15:07;;;;;;;;;;;;;;;22.05;43.79;100974.16;5337106;32;34315;-75
2022/10/11 15:18:16;;;;;;;;;;;;;;;22.83;42.07;100981.38;5343602;32;35268;-74
2022/10/11 15:21:21;;;;;;;;;;;;;;;22.19;43.59;100965.06;5336869;32;34233;-74
2022/10/11 15:24:23;;;;;;;;;;;;;;;22.37;42.91;100974.34;5325190;32;35037;-73
2022/10/11 15:27:27;;;;;;;;;;;;;;;22.62;42.43;100979.44;5336975;32;34190;-74
2022/10/11 15:30:30;;;;;;;;;;;;;;;21.55;45.02;100981.56;5335055;32;44779;-73
2022/10/11 15:33:32;;;;;;;;;;;;;;;21.86;44.44;100978.25;5360150;32;34491;-75
2022/10/11 15:36:34;;;;;;;;;;;;;;;21.64;45.17;100988.91;5343590;32;35023;-77
2022/10/11 15:39:36;;;;;;;;;;;;;;;21.74;44.70;100986.37;5355343;32;34185;-76
2022/10/11 15:42:38;;;;;;;;;;;;;;;22.16;43.71;100987.59;5343972;32;34623;-75
2022/10/11 15:45:40;;;;;;;;;;;;;;;21.98;43.80;100989.84;5339338;32;34575;-74
2022/10/11 15:48:42;;;;;;;;;;;;;;;22.04;43.90;100991.19;5355363;32;35807;-74
2022/10/11 15:51:44;;;;;;;;;;;;;;;22.12;43.50;100989.66;5344381;32;34225;-79